SAS58T EKCH-LIMC
Flight info
| Callsign | SAS58T |
|---|---|
| Flight time | 1h 38m |
| Altitude | 37000 |
| Route | NEXEN T503 MICOS DCT RAMAR DCT ABGUS DCT IBAGA DCT DKB N869 TEDGO DCT SONOM DCT GERSA DCT SOSON DCT DEGAD Z424 RIXUV |
| Aircraft | A320/M-SDE3FGHIRWY/LB1 |
Departure
| Time | 2026-04-25 17:51 |
|---|---|
| Airport | Copenhagen Kastrup Airport (EKCH) |
Arrival
| Time | 2026-04-25 19:29 |
|---|---|
| Airport | Milan Malpensa International Airport (LIMC) |
| Time | Latitude | Longitude | Altitude | Speed | Heading |
|---|---|---|---|---|---|
| 2026-04-25 17:29 | 55.62703 | 12.64166 | 24 ft | 0 kts | 32° |
| 2026-04-25 17:43 | 55.62691 | 12.64153 | 27 ft | 2 kts | 32° |
| 2026-04-25 17:43 | 55.62677 | 12.64136 | 25 ft | 2 kts | 32° |
| 2026-04-25 17:43 | 55.62662 | 12.64120 | 27 ft | 2 kts | 36° |
| 2026-04-25 17:43 | 55.62653 | 12.64098 | 39 ft | 2 kts | 76° |
| 2026-04-25 17:44 | 55.62648 | 12.64070 | 26 ft | 2 kts | 97° |
| 2026-04-25 17:44 | 55.62650 | 12.64056 | 25 ft | 0 kts | 119° |
| 2026-04-25 17:46 | 55.62649 | 12.64058 | 25 ft | 1 kts | 119° |
| 2026-04-25 17:47 | 55.62634 | 12.64105 | 24 ft | 8 kts | 119° |
| 2026-04-25 17:47 | 55.62607 | 12.64191 | 24 ft | 0 kts | 119° |
| 2026-04-25 17:47 | 55.62596 | 12.64220 | 24 ft | 6 kts | 126° |
| 2026-04-25 17:47 | 55.62562 | 12.64308 | 24 ft | 11 kts | 124° |
| 2026-04-25 17:48 | 55.62429 | 12.64470 | 24 ft | 15 kts | 195° |
| 2026-04-25 17:48 | 55.62319 | 12.64415 | 25 ft | 18 kts | 194° |
| 2026-04-25 17:48 | 55.62191 | 12.64338 | 22 ft | 21 kts | 205° |
| 2026-04-25 17:49 | 55.62060 | 12.64228 | 25 ft | 22 kts | 205° |
| 2026-04-25 17:49 | 55.61939 | 12.64125 | 24 ft | 14 kts | 205° |
| 2026-04-25 17:49 | 55.61844 | 12.64072 | 24 ft | 14 kts | 181° |
| 2026-04-25 17:49 | 55.61770 | 12.64081 | 24 ft | 10 kts | 175° |
| 2026-04-25 17:50 | 55.61694 | 12.64090 | 28 ft | 11 kts | 176° |
| 2026-04-25 17:50 | 55.61622 | 12.64065 | 27 ft | 11 kts | 214° |
| 2026-04-25 17:50 | 55.61545 | 12.63947 | 27 ft | 25 kts | 222° |
| 2026-04-25 17:50 | 55.61243 | 12.63476 | 27 ft | 88 kts | 221° |
| 2026-04-25 17:51 | 55.60650 | 12.62556 | 26 ft | 136 kts | 220° |
| 2026-04-25 17:51 | 55.59860 | 12.61314 | 263 ft | 157 kts | 228° |
| 2026-04-25 17:51 | 55.59031 | 12.60026 | 834 ft | 160 kts | 229° |
| 2026-04-25 17:51 | 55.58187 | 12.58729 | 1447 ft | 164 kts | 232° |
| 2026-04-25 17:52 | 55.57280 | 12.57313 | 1716 ft | 185 kts | 230° |
| 2026-04-25 17:52 | 55.56596 | 12.56291 | 1857 ft | 204 kts | 226° |
| 2026-04-25 17:52 | 55.54948 | 12.54163 | 2385 ft | 238 kts | 223° |
| 2026-04-25 17:52 | 55.53549 | 12.52463 | 3149 ft | 247 kts | 223° |
| 2026-04-25 17:53 | 55.52110 | 12.50751 | 4059 ft | 251 kts | 223° |
| 2026-04-25 17:53 | 55.50651 | 12.49012 | 4941 ft | 255 kts | 223° |
| 2026-04-25 17:53 | 55.49167 | 12.47228 | 5770 ft | 261 kts | 224° |
| 2026-04-25 17:53 | 55.47655 | 12.45396 | 6583 ft | 266 kts | 224° |
| 2026-04-25 17:54 | 55.46125 | 12.43537 | 7409 ft | 268 kts | 224° |
| 2026-04-25 17:54 | 55.44584 | 12.41663 | 8290 ft | 270 kts | 225° |
| 2026-04-25 17:54 | 55.43036 | 12.39775 | 9135 ft | 272 kts | 225° |
| 2026-04-25 17:54 | 55.41478 | 12.37875 | 9971 ft | 273 kts | 226° |
| 2026-04-25 17:55 | 55.39881 | 12.35915 | 10387 ft | 290 kts | 226° |
| 2026-04-25 17:55 | 55.38163 | 12.33784 | 10557 ft | 314 kts | 225° |
| 2026-04-25 17:55 | 55.36330 | 12.31534 | 11001 ft | 325 kts | 224° |
| 2026-04-25 17:55 | 55.34447 | 12.29257 | 11639 ft | 330 kts | 224° |
| 2026-04-25 17:56 | 55.32542 | 12.26968 | 12315 ft | 334 kts | 225° |
| 2026-04-25 17:56 | 55.30615 | 12.24655 | 12999 ft | 337 kts | 225° |
| 2026-04-25 17:56 | 55.28669 | 12.22323 | 13686 ft | 340 kts | 225° |
| 2026-04-25 17:56 | 55.26704 | 12.19962 | 14265 ft | 344 kts | 225° |
| 2026-04-25 17:57 | 55.24719 | 12.17576 | 14844 ft | 348 kts | 226° |
| 2026-04-25 17:57 | 55.22718 | 12.15165 | 15423 ft | 351 kts | 226° |
| 2026-04-25 17:57 | 55.20701 | 12.12731 | 16004 ft | 353 kts | 226° |
| 2026-04-25 17:57 | 55.20045 | 12.11939 | 16191 ft | 354 kts | 226° |
| 2026-04-25 17:58 | 55.16700 | 12.07744 | 17088 ft | 357 kts | 227° |
| 2026-04-25 17:58 | 55.14693 | 12.05151 | 17684 ft | 360 kts | 228° |
| 2026-04-25 17:58 | 55.12673 | 12.02532 | 18291 ft | 363 kts | 228° |
| 2026-04-25 17:58 | 55.10630 | 11.99897 | 18809 ft | 366 kts | 228° |
| 2026-04-25 17:59 | 55.08572 | 11.97256 | 19373 ft | 369 kts | 228° |
| 2026-04-25 17:59 | 55.06493 | 11.94598 | 19937 ft | 372 kts | 228° |
| 2026-04-25 17:59 | 55.04396 | 11.91924 | 20501 ft | 375 kts | 228° |
| 2026-04-25 17:59 | 55.02282 | 11.89237 | 21043 ft | 378 kts | 228° |
| 2026-04-25 18:00 | 55.00151 | 11.86535 | 21583 ft | 380 kts | 228° |
| 2026-04-25 18:00 | 54.98004 | 11.83813 | 22082 ft | 383 kts | 228° |
| 2026-04-25 18:00 | 54.95846 | 11.81079 | 22574 ft | 385 kts | 228° |
| 2026-04-25 18:00 | 54.93668 | 11.78326 | 22974 ft | 389 kts | 227° |
| 2026-04-25 18:01 | 54.91464 | 11.75550 | 23424 ft | 392 kts | 227° |
| 2026-04-25 18:01 | 54.89243 | 11.72760 | 23820 ft | 395 kts | 227° |
| 2026-04-25 18:01 | 54.87006 | 11.69956 | 24219 ft | 398 kts | 227° |
| 2026-04-25 18:01 | 54.84755 | 11.67136 | 24601 ft | 400 kts | 227° |
| 2026-04-25 18:02 | 54.82524 | 11.64335 | 24970 ft | 402 kts | 227° |
| 2026-04-25 18:02 | 54.80251 | 11.61480 | 25337 ft | 405 kts | 227° |
| 2026-04-25 18:02 | 54.77962 | 11.58609 | 25699 ft | 407 kts | 227° |
| 2026-04-25 18:02 | 54.75660 | 11.55730 | 26056 ft | 410 kts | 227° |
| 2026-04-25 18:03 | 54.73341 | 11.52839 | 26401 ft | 412 kts | 227° |
| 2026-04-25 18:03 | 54.71002 | 11.49927 | 26682 ft | 415 kts | 226° |
| 2026-04-25 18:03 | 54.68648 | 11.47006 | 27001 ft | 418 kts | 226° |
| 2026-04-25 18:03 | 54.66277 | 11.44068 | 27333 ft | 421 kts | 226° |
| 2026-04-25 18:04 | 54.63890 | 11.41115 | 27668 ft | 423 kts | 226° |
| 2026-04-25 18:04 | 54.61489 | 11.38146 | 27991 ft | 426 kts | 226° |
| 2026-04-25 18:04 | 54.59073 | 11.35163 | 28298 ft | 429 kts | 226° |
| 2026-04-25 18:04 | 54.56636 | 11.32153 | 28548 ft | 433 kts | 226° |
| 2026-04-25 18:05 | 54.54209 | 11.29164 | 28862 ft | 436 kts | 226° |
| 2026-04-25 18:05 | 54.51738 | 11.26139 | 29245 ft | 436 kts | 226° |
| 2026-04-25 18:05 | 54.49257 | 11.23118 | 29711 ft | 436 kts | 225° |
| 2026-04-25 18:05 | 54.46783 | 11.20117 | 30044 ft | 436 kts | 225° |
| 2026-04-25 18:06 | 54.44299 | 11.17105 | 30380 ft | 437 kts | 225° |
| 2026-04-25 18:06 | 54.41805 | 11.14105 | 30750 ft | 439 kts | 223° |
| 2026-04-25 18:06 | 54.39013 | 11.11732 | 31079 ft | 460 kts | 206° |
| 2026-04-25 18:06 | 54.35801 | 11.10765 | 31433 ft | 479 kts | 190° |
| 2026-04-25 18:07 | 54.32456 | 11.10626 | 31808 ft | 481 kts | 188° |
| 2026-04-25 18:07 | 54.29108 | 11.10553 | 32199 ft | 481 kts | 188° |
| 2026-04-25 18:07 | 54.25763 | 11.10512 | 32598 ft | 481 kts | 188° |
| 2026-04-25 18:07 | 54.22419 | 11.10478 | 32936 ft | 480 kts | 187° |
| 2026-04-25 18:08 | 54.19084 | 11.10439 | 33359 ft | 479 kts | 187° |
| 2026-04-25 18:08 | 54.15754 | 11.10380 | 33768 ft | 478 kts | 187° |
| 2026-04-25 18:08 | 54.12432 | 11.10300 | 33972 ft | 478 kts | 188° |
| 2026-04-25 18:09 | 54.05775 | 11.10129 | 34206 ft | 478 kts | 188° |
| 2026-04-25 18:09 | 54.02453 | 11.10049 | 34574 ft | 477 kts | 188° |
| 2026-04-25 18:09 | 53.99137 | 11.09971 | 34911 ft | 476 kts | 188° |
| 2026-04-25 18:10 | 53.92517 | 11.09811 | 35507 ft | 475 kts | 187° |
| 2026-04-25 18:10 | 53.89210 | 11.09734 | 35801 ft | 475 kts | 187° |
| 2026-04-25 18:10 | 53.85947 | 11.09664 | 36092 ft | 474 kts | 187° |
| 2026-04-25 18:10 | 53.82649 | 11.09596 | 36386 ft | 474 kts | 187° |
| 2026-04-25 18:11 | 53.79349 | 11.09528 | 36669 ft | 473 kts | 187° |
| 2026-04-25 18:11 | 53.76062 | 11.09455 | 36923 ft | 473 kts | 187° |
| 2026-04-25 18:11 | 53.72765 | 11.09380 | 36992 ft | 475 kts | 187° |
| 2026-04-25 18:12 | 53.66101 | 11.09220 | 37022 ft | 480 kts | 187° |
| 2026-04-25 18:12 | 53.59412 | 11.09065 | 37023 ft | 481 kts | 187° |
| 2026-04-25 18:13 | 53.52717 | 11.08918 | 37023 ft | 481 kts | 187° |
| 2026-04-25 18:13 | 53.46022 | 11.08776 | 37004 ft | 480 kts | 186° |
| 2026-04-25 18:14 | 53.36002 | 11.08553 | 37039 ft | 480 kts | 186° |
| 2026-04-25 18:14 | 53.29329 | 11.08401 | 37049 ft | 479 kts | 186° |
| 2026-04-25 18:15 | 53.22662 | 11.08240 | 37030 ft | 479 kts | 186° |
| 2026-04-25 18:15 | 53.16002 | 11.08096 | 37032 ft | 478 kts | 186° |
| 2026-04-25 18:16 | 53.09397 | 11.07960 | 37038 ft | 478 kts | 186° |
| 2026-04-25 18:17 | 52.99422 | 11.07746 | 37050 ft | 477 kts | 186° |
| 2026-04-25 18:17 | 52.92780 | 11.07607 | 37048 ft | 477 kts | 186° |
| 2026-04-25 18:18 | 52.86135 | 11.07463 | 37050 ft | 477 kts | 186° |
| 2026-04-25 18:18 | 52.79500 | 11.07314 | 37051 ft | 477 kts | 186° |
| 2026-04-25 18:19 | 52.72876 | 11.07156 | 37026 ft | 476 kts | 186° |
| 2026-04-25 18:19 | 52.66257 | 11.07003 | 37046 ft | 475 kts | 186° |
| 2026-04-25 18:20 | 52.59688 | 11.06875 | 37063 ft | 475 kts | 186° |
| 2026-04-25 18:20 | 52.53077 | 11.06740 | 37063 ft | 474 kts | 186° |
| 2026-04-25 18:21 | 52.46478 | 11.06606 | 37040 ft | 474 kts | 186° |
| 2026-04-25 18:21 | 52.39893 | 11.06470 | 37058 ft | 473 kts | 186° |
| 2026-04-25 18:22 | 52.33316 | 11.06333 | 37063 ft | 473 kts | 186° |
| 2026-04-25 18:22 | 52.27848 | 11.06222 | 37068 ft | 473 kts | 186° |
| 2026-04-25 18:23 | 52.21272 | 11.06078 | 37038 ft | 472 kts | 186° |
| 2026-04-25 18:23 | 52.14698 | 11.05928 | 37057 ft | 472 kts | 186° |
| 2026-04-25 18:24 | 52.07070 | 11.05772 | 37061 ft | 472 kts | 186° |
| 2026-04-25 18:24 | 52.01610 | 11.05656 | 37066 ft | 472 kts | 186° |
| 2026-04-25 18:25 | 51.95048 | 11.05519 | 37044 ft | 471 kts | 186° |
| 2026-04-25 18:25 | 51.88485 | 11.05384 | 37060 ft | 471 kts | 186° |
| 2026-04-25 18:26 | 51.82043 | 11.04221 | 37067 ft | 465 kts | 194° |
| 2026-04-25 18:26 | 51.75644 | 11.02649 | 37041 ft | 465 kts | 194° |
| 2026-04-25 18:27 | 51.69250 | 11.01093 | 37063 ft | 464 kts | 194° |
| 2026-04-25 18:27 | 51.62858 | 10.99562 | 37075 ft | 464 kts | 194° |
| 2026-04-25 18:28 | 51.56512 | 10.98053 | 37076 ft | 463 kts | 194° |
| 2026-04-25 18:28 | 51.50139 | 10.96523 | 37044 ft | 463 kts | 194° |
| 2026-04-25 18:29 | 51.40584 | 10.94232 | 37076 ft | 462 kts | 193° |
| 2026-04-25 18:30 | 51.27860 | 10.91208 | 37079 ft | 462 kts | 193° |
| 2026-04-25 18:30 | 51.21505 | 10.89696 | 37085 ft | 461 kts | 193° |
| 2026-04-25 18:31 | 51.15159 | 10.88193 | 37101 ft | 461 kts | 193° |
| 2026-04-25 18:31 | 51.08807 | 10.86693 | 37103 ft | 461 kts | 193° |
| 2026-04-25 18:32 | 51.02501 | 10.85205 | 37080 ft | 461 kts | 193° |
| 2026-04-25 18:32 | 50.96118 | 10.83722 | 37093 ft | 461 kts | 193° |
| 2026-04-25 18:33 | 50.89816 | 10.82266 | 37096 ft | 461 kts | 193° |
| 2026-04-25 18:33 | 50.83473 | 10.80792 | 37093 ft | 461 kts | 193° |
| 2026-04-25 18:34 | 50.77132 | 10.79307 | 37085 ft | 461 kts | 193° |
| 2026-04-25 18:34 | 50.70787 | 10.77831 | 37092 ft | 461 kts | 193° |
| 2026-04-25 18:35 | 50.64435 | 10.76359 | 37095 ft | 461 kts | 193° |
| 2026-04-25 18:35 | 50.58081 | 10.74885 | 37099 ft | 461 kts | 193° |
| 2026-04-25 18:36 | 50.51729 | 10.73435 | 37109 ft | 461 kts | 193° |
| 2026-04-25 18:36 | 50.45374 | 10.71983 | 37108 ft | 461 kts | 193° |
| 2026-04-25 18:37 | 50.39025 | 10.70530 | 37105 ft | 461 kts | 193° |
| 2026-04-25 18:37 | 50.32681 | 10.69083 | 37088 ft | 460 kts | 193° |
| 2026-04-25 18:38 | 50.26344 | 10.67649 | 37102 ft | 460 kts | 192° |
| 2026-04-25 18:38 | 50.20050 | 10.66229 | 37106 ft | 460 kts | 192° |
| 2026-04-25 18:39 | 50.13722 | 10.64799 | 37091 ft | 459 kts | 192° |
| 2026-04-25 18:39 | 50.07407 | 10.63373 | 37099 ft | 458 kts | 192° |
| 2026-04-25 18:40 | 50.01095 | 10.61953 | 37104 ft | 458 kts | 192° |
| 2026-04-25 18:40 | 49.94787 | 10.60539 | 37096 ft | 458 kts | 192° |
| 2026-04-25 18:41 | 49.88483 | 10.59121 | 37085 ft | 458 kts | 192° |
| 2026-04-25 18:41 | 49.82178 | 10.57707 | 36817 ft | 458 kts | 192° |
| 2026-04-25 18:42 | 49.79020 | 10.57008 | 36425 ft | 458 kts | 192° |
| 2026-04-25 18:42 | 49.76930 | 10.56546 | 36166 ft | 459 kts | 192° |
| 2026-04-25 18:42 | 49.72792 | 10.55107 | 35654 ft | 454 kts | 202° |
| 2026-04-25 18:42 | 49.69808 | 10.53479 | 35267 ft | 455 kts | 203° |
| 2026-04-25 18:43 | 49.66876 | 10.51659 | 35051 ft | 452 kts | 213° |
| 2026-04-25 18:43 | 49.64313 | 10.48943 | 35097 ft | 448 kts | 222° |
| 2026-04-25 18:43 | 49.59425 | 10.42964 | 35097 ft | 449 kts | 223° |
| 2026-04-25 18:44 | 49.54553 | 10.36964 | 35100 ft | 449 kts | 223° |
| 2026-04-25 18:44 | 49.49662 | 10.30966 | 35082 ft | 449 kts | 222° |
| 2026-04-25 18:45 | 49.44769 | 10.24989 | 35089 ft | 449 kts | 222° |
| 2026-04-25 18:45 | 49.39877 | 10.19025 | 35091 ft | 449 kts | 222° |
| 2026-04-25 18:46 | 49.34977 | 10.13075 | 35086 ft | 449 kts | 222° |
| 2026-04-25 18:46 | 49.30107 | 10.07178 | 35074 ft | 449 kts | 222° |
| 2026-04-25 18:47 | 49.25215 | 10.01240 | 35090 ft | 448 kts | 222° |
| 2026-04-25 18:47 | 49.20323 | 9.95324 | 35112 ft | 448 kts | 221° |
| 2026-04-25 18:48 | 49.15412 | 9.89423 | 35113 ft | 449 kts | 221° |
| 2026-04-25 18:48 | 49.10500 | 9.83539 | 35102 ft | 449 kts | 221° |
| 2026-04-25 18:49 | 49.05593 | 9.77661 | 35112 ft | 449 kts | 221° |
| 2026-04-25 18:49 | 49.00682 | 9.71788 | 35106 ft | 449 kts | 221° |
| 2026-04-25 18:50 | 48.95798 | 9.65971 | 35106 ft | 448 kts | 221° |
| 2026-04-25 18:50 | 48.90850 | 9.60092 | 35093 ft | 448 kts | 221° |
| 2026-04-25 18:51 | 48.86762 | 9.55239 | 35090 ft | 449 kts | 221° |
| 2026-04-25 18:51 | 48.81032 | 9.48463 | 35079 ft | 449 kts | 221° |
| 2026-04-25 18:52 | 48.76097 | 9.42646 | 35075 ft | 449 kts | 221° |
| 2026-04-25 18:52 | 48.71162 | 9.36849 | 35083 ft | 449 kts | 221° |
| 2026-04-25 18:53 | 48.66219 | 9.31060 | 35084 ft | 449 kts | 221° |
| 2026-04-25 18:53 | 48.60986 | 9.25862 | 35084 ft | 455 kts | 207° |
| 2026-04-25 18:54 | 48.51876 | 9.21518 | 35083 ft | 459 kts | 199° |
| 2026-04-25 18:55 | 48.45744 | 9.18827 | 35079 ft | 459 kts | 199° |
| 2026-04-25 18:55 | 48.39612 | 9.16135 | 35079 ft | 459 kts | 199° |
| 2026-04-25 18:56 | 48.33478 | 9.13442 | 35081 ft | 459 kts | 199° |
| 2026-04-25 18:56 | 48.27341 | 9.10767 | 35079 ft | 459 kts | 199° |
| 2026-04-25 18:57 | 48.21217 | 9.08093 | 35084 ft | 459 kts | 199° |
| 2026-04-25 18:57 | 48.15084 | 9.05428 | 35083 ft | 458 kts | 199° |
| 2026-04-25 18:58 | 48.08994 | 9.02782 | 35087 ft | 459 kts | 199° |
| 2026-04-25 18:58 | 47.99794 | 8.98789 | 35085 ft | 459 kts | 199° |
| 2026-04-25 18:59 | 47.87511 | 8.93521 | 35080 ft | 459 kts | 198° |
| 2026-04-25 19:00 | 47.78286 | 8.89563 | 35091 ft | 460 kts | 199° |
| 2026-04-25 19:01 | 47.69172 | 8.85155 | 35087 ft | 459 kts | 202° |
| 2026-04-25 19:01 | 47.63140 | 8.82056 | 35089 ft | 458 kts | 202° |
| 2026-04-25 19:02 | 47.54068 | 8.77576 | 35091 ft | 458 kts | 201° |
| 2026-04-25 19:03 | 47.47027 | 8.74144 | 35078 ft | 458 kts | 201° |
| 2026-04-25 19:03 | 47.38976 | 8.70213 | 35079 ft | 458 kts | 202° |
| 2026-04-25 19:04 | 47.29901 | 8.65783 | 35089 ft | 458 kts | 201° |
| 2026-04-25 19:05 | 47.17808 | 8.59921 | 35092 ft | 457 kts | 202° |
| 2026-04-25 19:06 | 47.11765 | 8.56989 | 35084 ft | 457 kts | 202° |
| 2026-04-25 19:06 | 47.02517 | 8.53739 | 35089 ft | 464 kts | 185° |
| 2026-04-25 19:07 | 46.92801 | 8.54836 | 34776 ft | 468 kts | 177° |
| 2026-04-25 19:08 | 46.86307 | 8.55777 | 34298 ft | 469 kts | 178° |
| 2026-04-25 19:08 | 46.83062 | 8.56238 | 34039 ft | 469 kts | 178° |
| 2026-04-25 19:09 | 46.73283 | 8.57622 | 32552 ft | 474 kts | 177° |
| 2026-04-25 19:09 | 46.72174 | 8.57777 | 32354 ft | 475 kts | 177° |
| 2026-04-25 19:09 | 46.63458 | 8.59012 | 30778 ft | 469 kts | 177° |
| 2026-04-25 19:10 | 46.60219 | 8.59478 | 30233 ft | 467 kts | 177° |
| 2026-04-25 19:10 | 46.57000 | 8.59937 | 29598 ft | 464 kts | 177° |
| 2026-04-25 19:10 | 46.53797 | 8.60392 | 28952 ft | 460 kts | 176° |
| 2026-04-25 19:10 | 46.50619 | 8.60845 | 28335 ft | 458 kts | 176° |
| 2026-04-25 19:11 | 46.47457 | 8.61103 | 27696 ft | 452 kts | 184° |
| 2026-04-25 19:11 | 46.44354 | 8.60606 | 27105 ft | 446 kts | 195° |
| 2026-04-25 19:11 | 46.41398 | 8.59350 | 26516 ft | 440 kts | 205° |
| 2026-04-25 19:11 | 46.38682 | 8.57413 | 25933 ft | 432 kts | 215° |
| 2026-04-25 19:12 | 46.36134 | 8.55124 | 25377 ft | 431 kts | 216° |
| 2026-04-25 19:12 | 46.33581 | 8.52833 | 24827 ft | 432 kts | 216° |
| 2026-04-25 19:12 | 46.31011 | 8.50580 | 24294 ft | 432 kts | 211° |
| 2026-04-25 19:12 | 46.28269 | 8.48900 | 23772 ft | 437 kts | 199° |
| 2026-04-25 19:13 | 46.25246 | 8.47994 | 23151 ft | 440 kts | 186° |
| 2026-04-25 19:13 | 46.22222 | 8.47951 | 22539 ft | 441 kts | 175° |
| 2026-04-25 19:13 | 46.19171 | 8.48396 | 21904 ft | 441 kts | 174° |
| 2026-04-25 19:13 | 46.16122 | 8.48841 | 21316 ft | 439 kts | 175° |
| 2026-04-25 19:14 | 46.13100 | 8.49276 | 20809 ft | 434 kts | 173° |
| 2026-04-25 19:14 | 46.12091 | 8.49467 | 20642 ft | 433 kts | 170° |
| 2026-04-25 19:14 | 46.07338 | 8.51513 | 19822 ft | 425 kts | 158° |
| 2026-04-25 19:14 | 46.04610 | 8.52984 | 19338 ft | 413 kts | 158° |
| 2026-04-25 19:15 | 46.01960 | 8.54411 | 18863 ft | 400 kts | 159° |
| 2026-04-25 19:15 | 46.00222 | 8.55346 | 18545 ft | 392 kts | 159° |
| 2026-04-25 19:15 | 45.97695 | 8.56703 | 18046 ft | 383 kts | 159° |
| 2026-04-25 19:15 | 45.95230 | 8.58024 | 17504 ft | 372 kts | 159° |
| 2026-04-25 19:16 | 45.92874 | 8.59287 | 16983 ft | 359 kts | 159° |
| 2026-04-25 19:16 | 45.90593 | 8.60583 | 16467 ft | 346 kts | 153° |
| 2026-04-25 19:16 | 45.88573 | 8.62345 | 15957 ft | 335 kts | 141° |
| 2026-04-25 19:16 | 45.86785 | 8.64423 | 15458 ft | 328 kts | 140° |
| 2026-04-25 19:17 | 45.85028 | 8.66469 | 14965 ft | 324 kts | 140° |
| 2026-04-25 19:17 | 45.83286 | 8.68487 | 14483 ft | 320 kts | 140° |
| 2026-04-25 19:17 | 45.81558 | 8.70483 | 13995 ft | 318 kts | 141° |
| 2026-04-25 19:17 | 45.79844 | 8.72460 | 13489 ft | 315 kts | 141° |
| 2026-04-25 19:18 | 45.78141 | 8.74425 | 12964 ft | 314 kts | 141° |
| 2026-04-25 19:18 | 45.76424 | 8.76336 | 12445 ft | 312 kts | 146° |
| 2026-04-25 19:18 | 45.74542 | 8.77860 | 11942 ft | 310 kts | 151° |
| 2026-04-25 19:18 | 45.72646 | 8.79311 | 11439 ft | 308 kts | 151° |
| 2026-04-25 19:19 | 45.70764 | 8.80757 | 10944 ft | 306 kts | 151° |
| 2026-04-25 19:19 | 45.68897 | 8.82195 | 10452 ft | 304 kts | 150° |
| 2026-04-25 19:19 | 45.67039 | 8.83627 | 9976 ft | 302 kts | 150° |
| 2026-04-25 19:19 | 45.65816 | 8.84570 | 9638 ft | 300 kts | 150° |
| 2026-04-25 19:20 | 45.63390 | 8.86434 | 8944 ft | 292 kts | 150° |
| 2026-04-25 19:20 | 45.61593 | 8.87635 | 8432 ft | 287 kts | 162° |
| 2026-04-25 19:20 | 45.59670 | 8.88264 | 7941 ft | 281 kts | 169° |
| 2026-04-25 19:20 | 45.57763 | 8.88774 | 7466 ft | 276 kts | 169° |
| 2026-04-25 19:21 | 45.55896 | 8.89278 | 7028 ft | 271 kts | 169° |
| 2026-04-25 19:21 | 45.52264 | 8.90268 | 6202 ft | 260 kts | 169° |
| 2026-04-25 19:21 | 45.50507 | 8.90749 | 5803 ft | 254 kts | 169° |
| 2026-04-25 19:22 | 45.48797 | 8.91217 | 5398 ft | 247 kts | 169° |
| 2026-04-25 19:22 | 45.47128 | 8.91670 | 5000 ft | 242 kts | 169° |
| 2026-04-25 19:22 | 45.43875 | 8.92519 | 4268 ft | 230 kts | 176° |
| 2026-04-25 19:23 | 45.42365 | 8.92104 | 4040 ft | 219 kts | 211° |
| 2026-04-25 19:23 | 45.40927 | 8.88477 | 4023 ft | 210 kts | 259° |
| 2026-04-25 19:23 | 45.40697 | 8.86474 | 4061 ft | 202 kts | 261° |
| 2026-04-25 19:24 | 45.40506 | 8.84534 | 4045 ft | 200 kts | 263° |
| 2026-04-25 19:24 | 45.40639 | 8.82563 | 4030 ft | 202 kts | 281° |
| 2026-04-25 19:24 | 45.42194 | 8.79332 | 4031 ft | 207 kts | 329° |
| 2026-04-25 19:25 | 45.44943 | 8.78321 | 3896 ft | 199 kts | 348° |
| 2026-04-25 19:25 | 45.46291 | 8.77955 | 3676 ft | 196 kts | 348° |
| 2026-04-25 19:25 | 45.47636 | 8.77587 | 3425 ft | 198 kts | 347° |
| 2026-04-25 19:26 | 45.48983 | 8.77217 | 3169 ft | 193 kts | 346° |
| 2026-04-25 19:26 | 45.50288 | 8.76859 | 2906 ft | 188 kts | 348° |
| 2026-04-25 19:26 | 45.51545 | 8.76514 | 2681 ft | 179 kts | 348° |
| 2026-04-25 19:26 | 45.52743 | 8.76184 | 2451 ft | 172 kts | 348° |
| 2026-04-25 19:27 | 45.53910 | 8.75863 | 2227 ft | 167 kts | 347° |
| 2026-04-25 19:27 | 45.54656 | 8.75657 | 2077 ft | 162 kts | 348° |
| 2026-04-25 19:27 | 45.56094 | 8.75262 | 1816 ft | 155 kts | 347° |
| 2026-04-25 19:27 | 45.57134 | 8.74975 | 1618 ft | 154 kts | 346° |
| 2026-04-25 19:28 | 45.58203 | 8.74680 | 1410 ft | 153 kts | 347° |
| 2026-04-25 19:28 | 45.59238 | 8.74393 | 1196 ft | 154 kts | 348° |
| 2026-04-25 19:28 | 45.60279 | 8.74111 | 1013 ft | 151 kts | 348° |
| 2026-04-25 19:28 | 45.61315 | 8.73815 | 850 ft | 152 kts | 349° |
| 2026-04-25 19:29 | 45.62332 | 8.73541 | 754 ft | 138 kts | 349° |
| 2026-04-25 19:29 | 45.63150 | 8.73312 | 744 ft | 96 kts | 349° |
| 2026-04-25 19:29 | 45.63638 | 8.73179 | 747 ft | 47 kts | 349° |
| 2026-04-25 19:29 | 45.63942 | 8.73097 | 742 ft | 41 kts | 349° |
| 2026-04-25 19:30 | 45.64157 | 8.73036 | 745 ft | 26 kts | 348° |
| 2026-04-25 19:30 | 45.64292 | 8.72937 | 750 ft | 21 kts | 309° |
| 2026-04-25 19:30 | 45.64371 | 8.72778 | 752 ft | 16 kts | 304° |
| 2026-04-25 19:30 | 45.64334 | 8.72684 | 752 ft | 15 kts | 168° |
| 2026-04-25 19:31 | 45.64221 | 8.72711 | 749 ft | 18 kts | 171° |
| 2026-04-25 19:31 | 45.64093 | 8.72747 | 752 ft | 20 kts | 169° |
| 2026-04-25 19:31 | 45.63984 | 8.72776 | 750 ft | 14 kts | 169° |
| 2026-04-25 19:31 | 45.63919 | 8.72707 | 751 ft | 15 kts | 281° |
| 2026-04-25 19:32 | 45.63953 | 8.72554 | 750 ft | 17 kts | 267° |
| 2026-04-25 19:32 | 45.63929 | 8.72370 | 752 ft | 20 kts | 258° |
| 2026-04-25 19:32 | 45.63917 | 8.72250 | 751 ft | 0 kts | 268° |
| 2026-04-25 19:34 | 45.63916 | 8.72203 | 749 ft | 9 kts | 268° |
| 2026-04-25 19:34 | 45.63912 | 8.72080 | 743 ft | 15 kts | 267° |
| 2026-04-25 19:34 | 45.63904 | 8.71924 | 748 ft | 15 kts | 255° |
| 2026-04-25 19:35 | 45.63833 | 8.71826 | 748 ft | 16 kts | 190° |
| 2026-04-25 19:35 | 45.63718 | 8.71848 | 751 ft | 18 kts | 168° |
| 2026-04-25 19:35 | 45.63587 | 8.71883 | 752 ft | 20 kts | 169° |
| 2026-04-25 19:35 | 45.63441 | 8.71923 | 750 ft | 22 kts | 169° |
| 2026-04-25 19:36 | 45.63297 | 8.71963 | 752 ft | 22 kts | 169° |
| 2026-04-25 19:36 | 45.63148 | 8.72005 | 749 ft | 21 kts | 168° |
| 2026-04-25 19:36 | 45.62995 | 8.72047 | 749 ft | 23 kts | 169° |
| 2026-04-25 19:36 | 45.62833 | 8.72090 | 750 ft | 22 kts | 169° |
| 2026-04-25 19:37 | 45.62720 | 8.72121 | 752 ft | 13 kts | 180° |
| 2026-04-25 19:37 | 45.62675 | 8.72020 | 752 ft | 14 kts | 259° |
| 2026-04-25 19:37 | 45.62659 | 8.71896 | 753 ft | 9 kts | 260° |
| 2026-04-25 19:37 | 45.62611 | 8.71841 | 753 ft | 11 kts | 174° |
| 2026-04-25 19:38 | 45.62534 | 8.71863 | 751 ft | 13 kts | 168° |
| 2026-04-25 19:38 | 45.62476 | 8.71872 | 753 ft | 6 kts | 200° |
| 2026-04-25 19:38 | 45.62463 | 8.71823 | 746 ft | 6 kts | 259° |
| 2026-04-25 19:38 | 45.62458 | 8.71784 | 753 ft | 2 kts | 259° |
| 2026-04-25 19:39 | 45.62456 | 8.71768 | 751 ft | 0 kts | 259° |